KSAZ

Staples Municipal Airport

Staples, Minnesota, USA
METAR KSAZ 241455Z AUTO 08008KT 10SM CLR 19/12 A2994 RMK AO2
Observed Flight Rules
Jun-24 @ 14:55 UTC (9 minutes ago) Visual Flight Rules
Wind Visibility Clouds
80° at 8 knots 10 miles
  • Clear skies
Temperatures Readings
Current 19°C / 66°F
Dewpoint 12°C / 54°F
Humidity 64%
Altimeter 29.94" Hg
Pressure 1014 hPa
Elevation 392
METAR KSAZ 241455Z AUTO 08008KT 10SM CLR 19/12 A2994 RMK AO2
Observed Flight Rules
Jun-24 @ 14:55 UTC
(9 minutes ago)
VFR
Wind Visibility
80° at 8 knots 10 miles
Clouds
  • Clear skies
Temperature Dewpoint
19°C / 66°F 12°C / 54°F
Humidity Altimeter Pressure
64% 29.94" Hg 1014 hPa